sensor_id;sensor_type;location;lat;lon;timestamp;P1;durP1;ratioP1;P2;durP2;ratioP2
16512;SDS011;8369;48.030;11.598;2024-02-23T00:01:40;0.40;;;0.40;;
16512;SDS011;8369;48.030;11.598;2024-02-23T00:04:06;0.40;;;0.40;;
16512;SDS011;8369;48.030;11.598;2024-02-23T00:06:33;0.40;;;0.40;;
16512;SDS011;8369;48.030;11.598;2024-02-23T00:08:59;1.30;;;0.40;;
16512;SDS011;8369;48.030;11.598;2024-02-23T00:11:25;0.50;;;0.50;;
16512;SDS011;8369;48.030;11.598;2024-02-23T00:13:53;0.37;;;0.37;;
16512;SDS011;8369;48.030;11.598;2024-02-23T00:16:18;0.40;;;0.40;;
16512;SDS011;8369;48.030;11.598;2024-02-23T00:18:44;0.40;;;0.40;;
16512;SDS011;8369;48.030;11.598;2024-02-23T00:21:10;0.50;;;0.50;;
16512;SDS011;8369;48.030;11.598;2024-02-23T00:23:36;1.13;;;0.83;;
16512;SDS011;8369;48.030;11.598;2024-02-23T00:26:03;0.40;;;0.40;;
16512;SDS011;8369;48.030;11.598;2024-02-23T00:28:28;0.47;;;0.47;;
16512;SDS011;8369;48.030;11.598;2024-02-23T00:30:54;0.50;;;0.50;;
16512;SDS011;8369;48.030;11.598;2024-02-23T00:33:20;0.50;;;0.50;;
16512;SDS011;8369;48.030;11.598;2024-02-23T00:35:45;0.30;;;0.30;;
16512;SDS011;8369;48.030;11.598;2024-02-23T00:38:11;0.57;;;0.50;;
16512;SDS011;8369;48.030;11.598;2024-02-23T00:40:37;0.37;;;0.37;;
16512;SDS011;8369;48.030;11.598;2024-02-23T00:43:03;0.77;;;0.57;;
16512;SDS011;8369;48.030;11.598;2024-02-23T00:45:29;0.40;;;0.30;;
16512;SDS011;8369;48.030;11.598;2024-02-23T00:47:55;0.40;;;0.40;;
16512;SDS011;8369;48.030;11.598;2024-02-23T00:50:22;0.60;;;0.40;;
16512;SDS011;8369;48.030;11.598;2024-02-23T00:52:51;0.30;;;0.30;;
16512;SDS011;8369;48.030;11.598;2024-02-23T00:55:18;0.23;;;0.23;;
16512;SDS011;8369;48.030;11.598;2024-02-23T00:57:44;0.23;;;0.23;;
16512;SDS011;8369;48.030;11.598;2024-02-23T01:00:10;0.93;;;0.30;;
16512;SDS011;8369;48.030;11.598;2024-02-23T01:02:38;0.50;;;0.50;;
16512;SDS011;8369;48.030;11.598;2024-02-23T01:05:05;0.30;;;0.30;;
16512;SDS011;8369;48.030;11.598;2024-02-23T01:07:34;0.40;;;0.40;;
16512;SDS011;8369;48.030;11.598;2024-02-23T01:10:00;0.40;;;0.40;;
16512;SDS011;8369;48.030;11.598;2024-02-23T01:12:26;0.40;;;0.40;;
16512;SDS011;8369;48.030;11.598;2024-02-23T01:14:52;0.40;;;0.40;;
16512;SDS011;8369;48.030;11.598;2024-02-23T01:17:18;0.40;;;0.40;;
16512;SDS011;8369;48.030;11.598;2024-02-23T01:19:44;0.40;;;0.40;;
16512;SDS011;8369;48.030;11.598;2024-02-23T01:22:10;0.53;;;0.40;;
16512;SDS011;8369;48.030;11.598;2024-02-23T01:24:36;0.47;;;0.40;;
16512;SDS011;8369;48.030;11.598;2024-02-23T01:27:02;0.40;;;0.40;;
16512;SDS011;8369;48.030;11.598;2024-02-23T01:29:28;0.30;;;0.30;;
16512;SDS011;8369;48.030;11.598;2024-02-23T01:31:54;0.20;;;0.20;;
16512;SDS011;8369;48.030;11.598;2024-02-23T01:34:20;0.30;;;0.30;;
16512;SDS011;8369;48.030;11.598;2024-02-23T01:36:46;0.60;;;0.60;;
16512;SDS011;8369;48.030;11.598;2024-02-23T01:39:12;0.30;;;0.30;;
16512;SDS011;8369;48.030;11.598;2024-02-23T01:41:38;0.40;;;0.40;;
16512;SDS011;8369;48.030;11.598;2024-02-23T01:44:04;0.50;;;0.50;;
16512;SDS011;8369;48.030;11.598;2024-02-23T01:46:30;0.33;;;0.33;;
16512;SDS011;8369;48.030;11.598;2024-02-23T01:48:57;0.40;;;0.40;;
16512;SDS011;8369;48.030;11.598;2024-02-23T01:51:24;0.30;;;0.30;;
16512;SDS011;8369;48.030;11.598;2024-02-23T01:53:50;0.30;;;0.30;;
16512;SDS011;8369;48.030;11.598;2024-02-23T01:56:17;0.50;;;0.40;;
16512;SDS011;8369;48.030;11.598;2024-02-23T01:58:43;0.30;;;0.30;;
16512;SDS011;8369;48.030;11.598;2024-02-23T02:01:11;0.50;;;0.40;;
16512;SDS011;8369;48.030;11.598;2024-02-23T02:03:40;0.30;;;0.27;;
16512;SDS011;8369;48.030;11.598;2024-02-23T02:06:06;0.30;;;0.30;;
16512;SDS011;8369;48.030;11.598;2024-02-23T02:08:35;0.30;;;0.30;;
16512;SDS011;8369;48.030;11.598;2024-02-23T02:11:02;0.40;;;0.40;;
16512;SDS011;8369;48.030;11.598;2024-02-23T02:13:28;0.30;;;0.30;;
16512;SDS011;8369;48.030;11.598;2024-02-23T02:15:54;1.33;;;0.40;;
16512;SDS011;8369;48.030;11.598;2024-02-23T02:18:20;0.23;;;0.23;;
16512;SDS011;8369;48.030;11.598;2024-02-23T02:20:50;0.20;;;0.20;;
16512;SDS011;8369;48.030;11.598;2024-02-23T02:23:18;0.30;;;0.30;;
16512;SDS011;8369;48.030;11.598;2024-02-23T02:25:44;0.50;;;0.30;;
16512;SDS011;8369;48.030;11.598;2024-02-23T02:28:10;0.30;;;0.30;;
16512;SDS011;8369;48.030;11.598;2024-02-23T02:30:36;3.97;;;2.63;;
16512;SDS011;8369;48.030;11.598;2024-02-23T02:33:03;0.87;;;0.87;;
16512;SDS011;8369;48.030;11.598;2024-02-23T02:35:28;0.50;;;0.47;;
16512;SDS011;8369;48.030;11.598;2024-02-23T02:37:54;0.50;;;0.50;;
16512;SDS011;8369;48.030;11.598;2024-02-23T02:40:20;1.07;;;0.30;;
16512;SDS011;8369;48.030;11.598;2024-02-23T02:42:46;0.30;;;0.30;;
16512;SDS011;8369;48.030;11.598;2024-02-23T02:45:11;0.30;;;0.30;;
16512;SDS011;8369;48.030;11.598;2024-02-23T02:47:37;0.30;;;0.30;;
16512;SDS011;8369;48.030;11.598;2024-02-23T02:50:03;0.30;;;0.30;;
16512;SDS011;8369;48.030;11.598;2024-02-23T02:52:31;0.30;;;0.30;;
16512;SDS011;8369;48.030;11.598;2024-02-23T02:54:57;0.30;;;0.30;;
16512;SDS011;8369;48.030;11.598;2024-02-23T02:57:23;0.30;;;0.30;;
16512;SDS011;8369;48.030;11.598;2024-02-23T02:59:49;0.30;;;0.30;;
16512;SDS011;8369;48.030;11.598;2024-02-23T03:02:15;0.30;;;0.30;;
16512;SDS011;8369;48.030;11.598;2024-02-23T03:04:50;0.30;;;0.30;;
16512;SDS011;8369;48.030;11.598;2024-02-23T03:07:16;0.57;;;0.30;;
16512;SDS011;8369;48.030;11.598;2024-02-23T03:09:42;0.30;;;0.30;;
16512;SDS011;8369;48.030;11.598;2024-02-23T03:12:08;0.30;;;0.30;;
16512;SDS011;8369;48.030;11.598;2024-02-23T03:14:35;0.30;;;0.30;;
16512;SDS011;8369;48.030;11.598;2024-02-23T03:17:06;0.37;;;0.37;;
16512;SDS011;8369;48.030;11.598;2024-02-23T03:19:32;0.27;;;0.27;;
16512;SDS011;8369;48.030;11.598;2024-02-23T03:21:58;0.30;;;0.30;;
16512;SDS011;8369;48.030;11.598;2024-02-23T03:24:24;0.30;;;0.30;;
16512;SDS011;8369;48.030;11.598;2024-02-23T03:26:50;0.30;;;0.30;;
16512;SDS011;8369;48.030;11.598;2024-02-23T03:29:15;1.27;;;0.30;;
16512;SDS011;8369;48.030;11.598;2024-02-23T03:31:41;0.23;;;0.23;;
16512;SDS011;8369;48.030;11.598;2024-02-23T03:34:07;0.20;;;0.20;;
16512;SDS011;8369;48.030;11.598;2024-02-23T03:36:33;0.30;;;0.30;;
16512;SDS011;8369;48.030;11.598;2024-02-23T03:39:00;0.40;;;0.40;;
16512;SDS011;8369;48.030;11.598;2024-02-23T03:41:26;0.33;;;0.33;;
16512;SDS011;8369;48.030;11.598;2024-02-23T03:43:51;0.43;;;0.40;;
16512;SDS011;8369;48.030;11.598;2024-02-23T03:46:17;0.40;;;0.40;;
16512;SDS011;8369;48.030;11.598;2024-02-23T03:48:44;0.30;;;0.30;;
16512;SDS011;8369;48.030;11.598;2024-02-23T03:51:10;0.40;;;0.40;;
16512;SDS011;8369;48.030;11.598;2024-02-23T03:53:36;0.23;;;0.23;;
16512;SDS011;8369;48.030;11.598;2024-02-23T03:56:02;0.30;;;0.30;;
16512;SDS011;8369;48.030;11.598;2024-02-23T03:58:28;0.50;;;0.50;;
16512;SDS011;8369;48.030;11.598;2024-02-23T04:00:54;0.57;;;0.40;;
16512;SDS011;8369;48.030;11.598;2024-02-23T04:03:20;0.27;;;0.27;;
16512;SDS011;8369;48.030;11.598;2024-02-23T04:05:45;0.30;;;0.30;;
16512;SDS011;8369;48.030;11.598;2024-02-23T04:08:11;0.30;;;0.30;;
16512;SDS011;8369;48.030;11.598;2024-02-23T04:10:37;0.40;;;0.40;;
16512;SDS011;8369;48.030;11.598;2024-02-23T04:13:02;0.30;;;0.30;;
16512;SDS011;8369;48.030;11.598;2024-02-23T04:15:28;0.30;;;0.30;;
16512;SDS011;8369;48.030;11.598;2024-02-23T04:17:54;0.30;;;0.30;;
16512;SDS011;8369;48.030;11.598;2024-02-23T04:20:20;0.33;;;0.33;;
16512;SDS011;8369;48.030;11.598;2024-02-23T04:22:46;0.60;;;0.50;;
16512;SDS011;8369;48.030;11.598;2024-02-23T04:25:12;0.30;;;0.30;;
16512;SDS011;8369;48.030;11.598;2024-02-23T04:27:37;0.40;;;0.40;;
16512;SDS011;8369;48.030;11.598;2024-02-23T04:30:04;1.43;;;0.50;;
16512;SDS011;8369;48.030;11.598;2024-02-23T04:32:31;0.50;;;0.47;;
16512;SDS011;8369;48.030;11.598;2024-02-23T04:34:57;0.73;;;0.50;;
16512;SDS011;8369;48.030;11.598;2024-02-23T04:37:23;0.60;;;0.60;;
16512;SDS011;8369;48.030;11.598;2024-02-23T04:39:48;0.43;;;0.43;;
16512;SDS011;8369;48.030;11.598;2024-02-23T04:42:14;0.60;;;0.60;;
16512;SDS011;8369;48.030;11.598;2024-02-23T04:44:43;0.50;;;0.40;;
16512;SDS011;8369;48.030;11.598;2024-02-23T04:47:09;3.63;;;0.50;;
16512;SDS011;8369;48.030;11.598;2024-02-23T04:49:34;0.40;;;0.40;;
16512;SDS011;8369;48.030;11.598;2024-02-23T04:52:00;1.33;;;0.77;;
16512;SDS011;8369;48.030;11.598;2024-02-23T04:54:26;0.50;;;0.50;;
16512;SDS011;8369;48.030;11.598;2024-02-23T04:56:52;0.67;;;0.67;;
16512;SDS011;8369;48.030;11.598;2024-02-23T04:59:19;0.70;;;0.70;;
16512;SDS011;8369;48.030;11.598;2024-02-23T05:01:45;0.70;;;0.70;;
16512;SDS011;8369;48.030;11.598;2024-02-23T05:04:12;0.80;;;0.80;;
16512;SDS011;8369;48.030;11.598;2024-02-23T05:06:38;0.60;;;0.60;;
16512;SDS011;8369;48.030;11.598;2024-02-23T05:09:04;0.67;;;0.67;;
16512;SDS011;8369;48.030;11.598;2024-02-23T05:11:34;0.70;;;0.70;;
16512;SDS011;8369;48.030;11.598;2024-02-23T05:14:00;0.50;;;0.50;;
16512;SDS011;8369;48.030;11.598;2024-02-23T05:16:26;0.57;;;0.57;;
16512;SDS011;8369;48.030;11.598;2024-02-23T05:18:51;0.57;;;0.57;;
16512;SDS011;8369;48.030;11.598;2024-02-23T05:21:17;0.40;;;0.40;;
16512;SDS011;8369;48.030;11.598;2024-02-23T05:23:43;0.80;;;0.70;;
16512;SDS011;8369;48.030;11.598;2024-02-23T05:26:11;0.60;;;0.60;;
16512;SDS011;8369;48.030;11.598;2024-02-23T05:28:37;0.70;;;0.70;;
16512;SDS011;8369;48.030;11.598;2024-02-23T05:31:04;1.33;;;1.10;;
16512;SDS011;8369;48.030;11.598;2024-02-23T05:33:30;0.70;;;0.70;;
16512;SDS011;8369;48.030;11.598;2024-02-23T05:35:56;0.53;;;0.53;;
16512;SDS011;8369;48.030;11.598;2024-02-23T05:38:22;0.43;;;0.43;;
16512;SDS011;8369;48.030;11.598;2024-02-23T05:40:47;0.87;;;0.60;;
16512;SDS011;8369;48.030;11.598;2024-02-23T05:43:13;0.50;;;0.50;;
16512;SDS011;8369;48.030;11.598;2024-02-23T05:45:39;0.47;;;0.47;;
16512;SDS011;8369;48.030;11.598;2024-02-23T05:48:05;0.87;;;0.40;;
16512;SDS011;8369;48.030;11.598;2024-02-23T05:50:32;1.23;;;0.80;;
16512;SDS011;8369;48.030;11.598;2024-02-23T05:52:58;0.50;;;0.50;;
16512;SDS011;8369;48.030;11.598;2024-02-23T05:55:24;1.87;;;0.70;;
16512;SDS011;8369;48.030;11.598;2024-02-23T05:57:50;0.60;;;0.60;;
16512;SDS011;8369;48.030;11.598;2024-02-23T06:00:16;0.73;;;0.60;;
16512;SDS011;8369;48.030;11.598;2024-02-23T06:02:46;0.77;;;0.73;;
16512;SDS011;8369;48.030;11.598;2024-02-23T06:05:13;0.80;;;0.80;;
16512;SDS011;8369;48.030;11.598;2024-02-23T06:07:39;0.90;;;0.90;;
16512;SDS011;8369;48.030;11.598;2024-02-23T06:10:05;1.00;;;0.90;;
16512;SDS011;8369;48.030;11.598;2024-02-23T06:12:31;0.70;;;0.70;;
16512;SDS011;8369;48.030;11.598;2024-02-23T06:14:57;0.90;;;0.90;;
16512;SDS011;8369;48.030;11.598;2024-02-23T06:17:23;0.60;;;0.60;;
16512;SDS011;8369;48.030;11.598;2024-02-23T06:19:50;0.83;;;0.70;;
16512;SDS011;8369;48.030;11.598;2024-02-23T06:22:18;2.10;;;0.77;;
16512;SDS011;8369;48.030;11.598;2024-02-23T06:24:48;0.50;;;0.50;;
16512;SDS011;8369;48.030;11.598;2024-02-23T06:27:15;0.40;;;0.40;;
16512;SDS011;8369;48.030;11.598;2024-02-23T06:29:42;0.63;;;0.63;;
16512;SDS011;8369;48.030;11.598;2024-02-23T06:32:08;1.23;;;0.60;;
16512;SDS011;8369;48.030;11.598;2024-02-23T06:34:34;1.30;;;0.77;;
16512;SDS011;8369;48.030;11.598;2024-02-23T06:37:00;0.70;;;0.70;;
16512;SDS011;8369;48.030;11.598;2024-02-23T06:39:27;0.70;;;0.70;;
16512;SDS011;8369;48.030;11.598;2024-02-23T06:41:52;1.67;;;0.73;;
16512;SDS011;8369;48.030;11.598;2024-02-23T06:44:18;1.07;;;0.90;;
16512;SDS011;8369;48.030;11.598;2024-02-23T06:46:44;2.77;;;1.10;;
16512;SDS011;8369;48.030;11.598;2024-02-23T06:49:10;2.23;;;1.10;;
16512;SDS011;8369;48.030;11.598;2024-02-23T06:51:36;2.03;;;1.20;;
16512;SDS011;8369;48.030;11.598;2024-02-23T06:54:03;4.67;;;1.23;;
16512;SDS011;8369;48.030;11.598;2024-02-23T06:56:29;3.30;;;1.37;;
16512;SDS011;8369;48.030;11.598;2024-02-23T06:58:54;3.30;;;1.93;;
16512;SDS011;8369;48.030;11.598;2024-02-23T07:01:20;7.43;;;3.57;;
16512;SDS011;8369;48.030;11.598;2024-02-23T07:03:46;13.23;;;5.90;;
16512;SDS011;8369;48.030;11.598;2024-02-23T07:06:16;20.87;;;9.03;;
16512;SDS011;8369;48.030;11.598;2024-02-23T07:08:43;30.87;;;14.97;;
16512;SDS011;8369;48.030;11.598;2024-02-23T07:11:10;29.00;;;13.57;;
16512;SDS011;8369;48.030;11.598;2024-02-23T07:13:36;19.80;;;10.97;;
16512;SDS011;8369;48.030;11.598;2024-02-23T07:16:02;17.63;;;9.00;;
16512;SDS011;8369;48.030;11.598;2024-02-23T07:18:28;17.13;;;11.17;;
16512;SDS011;8369;48.030;11.598;2024-02-23T07:20:54;23.47;;;13.87;;
16512;SDS011;8369;48.030;11.598;2024-02-23T07:23:20;20.97;;;13.10;;
16512;SDS011;8369;48.030;11.598;2024-02-23T07:25:46;27.97;;;14.40;;
16512;SDS011;8369;48.030;11.598;2024-02-23T07:28:13;21.10;;;12.33;;
16512;SDS011;8369;48.030;11.598;2024-02-23T07:30:43;19.73;;;11.27;;
16512;SDS011;8369;48.030;11.598;2024-02-23T07:33:09;16.23;;;9.37;;
16512;SDS011;8369;48.030;11.598;2024-02-23T07:35:35;14.57;;;8.47;;
16512;SDS011;8369;48.030;11.598;2024-02-23T07:38:00;12.97;;;7.13;;
16512;SDS011;8369;48.030;11.598;2024-02-23T07:40:26;6.43;;;4.13;;
16512;SDS011;8369;48.030;11.598;2024-02-23T07:42:52;4.97;;;3.67;;
16512;SDS011;8369;48.030;11.598;2024-02-23T07:45:18;2.43;;;1.93;;
16512;SDS011;8369;48.030;11.598;2024-02-23T07:47:44;8.00;;;5.00;;
16512;SDS011;8369;48.030;11.598;2024-02-23T07:50:11;10.37;;;4.60;;
16512;SDS011;8369;48.030;11.598;2024-02-23T07:52:37;6.37;;;3.93;;
16512;SDS011;8369;48.030;11.598;2024-02-23T07:55:04;4.40;;;2.63;;
16512;SDS011;8369;48.030;11.598;2024-02-23T07:57:30;3.00;;;1.77;;
16512;SDS011;8369;48.030;11.598;2024-02-23T07:59:56;2.40;;;2.10;;
16512;SDS011;8369;48.030;11.598;2024-02-23T08:02:22;4.37;;;1.93;;
16512;SDS011;8369;48.030;11.598;2024-02-23T08:04:48;2.10;;;1.90;;
16512;SDS011;8369;48.030;11.598;2024-02-23T08:07:15;3.70;;;1.67;;
16512;SDS011;8369;48.030;11.598;2024-02-23T08:09:41;2.90;;;1.40;;
16512;SDS011;8369;48.030;11.598;2024-02-23T08:12:07;1.13;;;0.90;;
16512;SDS011;8369;48.030;11.598;2024-02-23T08:14:33;2.40;;;1.50;;
16512;SDS011;8369;48.030;11.598;2024-02-23T08:17:00;1.33;;;0.93;;
16512;SDS011;8369;48.030;11.598;2024-02-23T08:19:26;2.20;;;1.50;;
16512;SDS011;8369;48.030;11.598;2024-02-23T08:21:52;3.50;;;1.07;;
16512;SDS011;8369;48.030;11.598;2024-02-23T08:24:17;0.90;;;0.80;;
16512;SDS011;8369;48.030;11.598;2024-02-23T08:26:43;0.80;;;0.80;;
16512;SDS011;8369;48.030;11.598;2024-02-23T08:29:09;2.97;;;1.70;;
16512;SDS011;8369;48.030;11.598;2024-02-23T08:31:36;3.63;;;2.20;;
16512;SDS011;8369;48.030;11.598;2024-02-23T08:34:02;1.00;;;0.90;;
16512;SDS011;8369;48.030;11.598;2024-02-23T08:36:28;0.70;;;0.70;;
16512;SDS011;8369;48.030;11.598;2024-02-23T08:38:54;1.30;;;1.10;;
16512;SDS011;8369;48.030;11.598;2024-02-23T08:41:20;4.57;;;3.57;;
16512;SDS011;8369;48.030;11.598;2024-02-23T08:43:45;1.30;;;1.20;;
16512;SDS011;8369;48.030;11.598;2024-02-23T08:46:11;2.13;;;1.20;;
16512;SDS011;8369;48.030;11.598;2024-02-23T08:48:38;3.27;;;1.30;;
16512;SDS011;8369;48.030;11.598;2024-02-23T08:51:04;1.13;;;1.07;;
16512;SDS011;8369;48.030;11.598;2024-02-23T08:53:30;1.30;;;0.77;;
16512;SDS011;8369;48.030;11.598;2024-02-23T08:55:56;0.87;;;0.87;;
16512;SDS011;8369;48.030;11.598;2024-02-23T08:58:22;1.03;;;0.80;;
16512;SDS011;8369;48.030;11.598;2024-02-23T09:00:48;3.80;;;0.90;;
16512;SDS011;8369;48.030;11.598;2024-02-23T09:03:15;1.00;;;0.90;;
16512;SDS011;8369;48.030;11.598;2024-02-23T09:05:41;1.40;;;0.77;;
16512;SDS011;8369;48.030;11.598;2024-02-23T09:08:07;1.33;;;0.83;;
16512;SDS011;8369;48.030;11.598;2024-02-23T09:10:33;0.90;;;0.90;;
16512;SDS011;8369;48.030;11.598;2024-02-23T09:12:59;1.13;;;1.00;;
16512;SDS011;8369;48.030;11.598;2024-02-23T09:15:25;1.00;;;0.90;;
16512;SDS011;8369;48.030;11.598;2024-02-23T09:17:51;1.13;;;0.80;;
16512;SDS011;8369;48.030;11.598;2024-02-23T09:20:17;1.30;;;0.80;;
16512;SDS011;8369;48.030;11.598;2024-02-23T09:22:43;2.43;;;1.30;;
16512;SDS011;8369;48.030;11.598;2024-02-23T09:25:09;1.73;;;0.97;;
16512;SDS011;8369;48.030;11.598;2024-02-23T09:27:35;1.13;;;1.00;;
16512;SDS011;8369;48.030;11.598;2024-02-23T09:30:05;2.73;;;1.50;;
16512;SDS011;8369;48.030;11.598;2024-02-23T09:32:31;1.07;;;1.00;;
16512;SDS011;8369;48.030;11.598;2024-02-23T09:34:58;1.33;;;0.93;;
16512;SDS011;8369;48.030;11.598;2024-02-23T09:37:23;1.07;;;0.87;;
16512;SDS011;8369;48.030;11.598;2024-02-23T09:39:49;2.17;;;0.90;;
16512;SDS011;8369;48.030;11.598;2024-02-23T09:42:15;2.07;;;0.90;;
16512;SDS011;8369;48.030;11.598;2024-02-23T09:44:43;1.33;;;0.90;;
16512;SDS011;8369;48.030;11.598;2024-02-23T09:47:11;0.87;;;0.87;;
16512;SDS011;8369;48.030;11.598;2024-02-23T09:49:39;1.20;;;0.80;;
16512;SDS011;8369;48.030;11.598;2024-02-23T09:52:07;0.83;;;0.80;;
16512;SDS011;8369;48.030;11.598;2024-02-23T09:54:35;1.40;;;0.70;;
16512;SDS011;8369;48.030;11.598;2024-02-23T09:57:07;0.80;;;0.80;;
16512;SDS011;8369;48.030;11.598;2024-02-23T09:59:36;0.70;;;0.70;;
16512;SDS011;8369;48.030;11.598;2024-02-23T10:02:09;2.17;;;0.80;;
16512;SDS011;8369;48.030;11.598;2024-02-23T10:04:39;2.80;;;0.90;;
16512;SDS011;8369;48.030;11.598;2024-02-23T10:07:06;0.70;;;0.70;;
16512;SDS011;8369;48.030;11.598;2024-02-23T10:09:32;2.43;;;0.90;;
16512;SDS011;8369;48.030;11.598;2024-02-23T10:11:58;0.80;;;0.80;;
16512;SDS011;8369;48.030;11.598;2024-02-23T10:14:23;0.70;;;0.70;;
16512;SDS011;8369;48.030;11.598;2024-02-23T10:16:50;1.73;;;0.80;;
16512;SDS011;8369;48.030;11.598;2024-02-23T10:19:21;0.90;;;0.73;;
16512;SDS011;8369;48.030;11.598;2024-02-23T10:21:47;1.67;;;0.90;;
16512;SDS011;8369;48.030;11.598;2024-02-23T10:24:17;1.30;;;1.17;;
16512;SDS011;8369;48.030;11.598;2024-02-23T10:26:43;1.57;;;1.13;;
16512;SDS011;8369;48.030;11.598;2024-02-23T10:29:10;1.03;;;1.03;;
16512;SDS011;8369;48.030;11.598;2024-02-23T10:31:36;2.30;;;1.53;;
16512;SDS011;8369;48.030;11.598;2024-02-23T10:34:07;0.97;;;0.90;;
16512;SDS011;8369;48.030;11.598;2024-02-23T10:36:40;1.60;;;1.27;;
16512;SDS011;8369;48.030;11.598;2024-02-23T10:39:17;1.97;;;1.70;;
16512;SDS011;8369;48.030;11.598;2024-02-23T10:41:51;5.40;;;3.23;;
16512;SDS011;8369;48.030;11.598;2024-02-23T10:44:28;3.17;;;2.20;;
16512;SDS011;8369;48.030;11.598;2024-02-23T10:46:54;1.20;;;1.10;;
16512;SDS011;8369;48.030;11.598;2024-02-23T10:49:21;9.90;;;5.33;;
16512;SDS011;8369;48.030;11.598;2024-02-23T10:51:53;2.23;;;1.57;;
16512;SDS011;8369;48.030;11.598;2024-02-23T10:54:20;0.80;;;0.80;;
16512;SDS011;8369;48.030;11.598;2024-02-23T10:56:47;1.00;;;0.77;;
16512;SDS011;8369;48.030;11.598;2024-02-23T10:59:14;0.90;;;0.90;;
16512;SDS011;8369;48.030;11.598;2024-02-23T11:01:46;0.90;;;0.60;;
16512;SDS011;8369;48.030;11.598;2024-02-23T11:04:19;0.70;;;0.60;;
16512;SDS011;8369;48.030;11.598;2024-02-23T11:06:49;0.83;;;0.83;;
16512;SDS011;8369;48.030;11.598;2024-02-23T11:09:29;2.10;;;0.80;;
16512;SDS011;8369;48.030;11.598;2024-02-23T11:11:57;1.77;;;0.80;;
16512;SDS011;8369;48.030;11.598;2024-02-23T11:14:31;1.00;;;0.90;;
16512;SDS011;8369;48.030;11.598;2024-02-23T11:16:59;1.33;;;0.80;;
16512;SDS011;8369;48.030;11.598;2024-02-23T11:19:36;1.23;;;0.70;;
16512;SDS011;8369;48.030;11.598;2024-02-23T11:22:03;1.60;;;0.80;;
16512;SDS011;8369;48.030;11.598;2024-02-23T11:24:30;0.90;;;0.90;;
16512;SDS011;8369;48.030;11.598;2024-02-23T11:26:57;0.63;;;0.60;;
16512;SDS011;8369;48.030;11.598;2024-02-23T11:29:27;0.70;;;0.70;;
16512;SDS011;8369;48.030;11.598;2024-02-23T11:31:54;1.23;;;0.70;;
16512;SDS011;8369;48.030;11.598;2024-02-23T11:34:26;0.60;;;0.60;;
16512;SDS011;8369;48.030;11.598;2024-02-23T11:36:56;0.60;;;0.60;;
16512;SDS011;8369;48.030;11.598;2024-02-23T11:39:25;1.60;;;0.80;;
16512;SDS011;8369;48.030;11.598;2024-02-23T11:41:52;1.23;;;0.67;;
16512;SDS011;8369;48.030;11.598;2024-02-23T11:44:18;0.63;;;0.63;;
16512;SDS011;8369;48.030;11.598;2024-02-23T11:46:44;1.53;;;0.50;;
16512;SDS011;8369;48.030;11.598;2024-02-23T11:51:41;0.60;;;0.60;;
16512;SDS011;8369;48.030;11.598;2024-02-23T11:54:07;0.70;;;0.70;;
16512;SDS011;8369;48.030;11.598;2024-02-23T11:56:34;0.63;;;0.63;;
16512;SDS011;8369;48.030;11.598;2024-02-23T11:58:59;0.53;;;0.53;;
16512;SDS011;8369;48.030;11.598;2024-02-23T12:01:28;1.00;;;0.67;;
16512;SDS011;8369;48.030;11.598;2024-02-23T12:03:57;0.73;;;0.73;;
16512;SDS011;8369;48.030;11.598;2024-02-23T12:06:23;0.93;;;0.70;;
16512;SDS011;8369;48.030;11.598;2024-02-23T12:08:49;4.63;;;0.80;;
16512;SDS011;8369;48.030;11.598;2024-02-23T12:11:15;0.40;;;0.40;;
16512;SDS011;8369;48.030;11.598;2024-02-23T12:13:42;0.50;;;0.50;;
16512;SDS011;8369;48.030;11.598;2024-02-23T12:16:10;0.87;;;0.87;;
16512;SDS011;8369;48.030;11.598;2024-02-23T12:18:36;0.93;;;0.80;;
16512;SDS011;8369;48.030;11.598;2024-02-23T12:21:06;1.40;;;0.90;;
16512;SDS011;8369;48.030;11.598;2024-02-23T12:23:39;1.40;;;0.80;;
16512;SDS011;8369;48.030;11.598;2024-02-23T12:26:06;1.27;;;0.70;;
16512;SDS011;8369;48.030;11.598;2024-02-23T12:28:31;2.00;;;0.80;;
16512;SDS011;8369;48.030;11.598;2024-02-23T12:31:00;0.40;;;0.40;;
16512;SDS011;8369;48.030;11.598;2024-02-23T12:33:33;1.20;;;0.60;;
16512;SDS011;8369;48.030;11.598;2024-02-23T12:36:01;1.47;;;0.60;;
16512;SDS011;8369;48.030;11.598;2024-02-23T12:38:28;1.10;;;0.63;;
16512;SDS011;8369;48.030;11.598;2024-02-23T12:40:54;1.20;;;0.53;;
16512;SDS011;8369;48.030;11.598;2024-02-23T12:43:20;0.50;;;0.50;;
16512;SDS011;8369;48.030;11.598;2024-02-23T12:45:52;0.50;;;0.50;;
16512;SDS011;8369;48.030;11.598;2024-02-23T12:48:20;0.77;;;0.67;;
16512;SDS011;8369;48.030;11.598;2024-02-23T12:50:47;1.83;;;0.90;;
16512;SDS011;8369;48.030;11.598;2024-02-23T12:56:08;1.57;;;0.67;;
16512;SDS011;8369;48.030;11.598;2024-02-23T12:58:36;0.67;;;0.67;;
16512;SDS011;8369;48.030;11.598;2024-02-23T13:01:04;0.60;;;0.60;;
16512;SDS011;8369;48.030;11.598;2024-02-23T13:03:31;0.77;;;0.70;;
16512;SDS011;8369;48.030;11.598;2024-02-23T13:05:57;2.30;;;0.80;;
16512;SDS011;8369;48.030;11.598;2024-02-23T13:08:25;0.50;;;0.50;;
16512;SDS011;8369;48.030;11.598;2024-02-23T13:10:55;0.77;;;0.67;;
16512;SDS011;8369;48.030;11.598;2024-02-23T13:13:21;0.77;;;0.77;;
16512;SDS011;8369;48.030;11.598;2024-02-23T13:15:50;0.77;;;0.70;;
16512;SDS011;8369;48.030;11.598;2024-02-23T13:18:17;0.80;;;0.80;;
16512;SDS011;8369;48.030;11.598;2024-02-23T13:20:44;0.73;;;0.73;;
16512;SDS011;8369;48.030;11.598;2024-02-23T13:23:10;1.00;;;0.87;;
16512;SDS011;8369;48.030;11.598;2024-02-23T13:25:37;2.40;;;1.00;;
16512;SDS011;8369;48.030;11.598;2024-02-23T13:28:04;0.70;;;0.70;;
16512;SDS011;8369;48.030;11.598;2024-02-23T13:30:31;0.70;;;0.70;;
16512;SDS011;8369;48.030;11.598;2024-02-23T13:32:57;0.70;;;0.70;;
16512;SDS011;8369;48.030;11.598;2024-02-23T13:35:22;5.70;;;0.80;;
16512;SDS011;8369;48.030;11.598;2024-02-23T13:37:48;1.43;;;0.80;;
16512;SDS011;8369;48.030;11.598;2024-02-23T13:40:14;0.70;;;0.70;;
16512;SDS011;8369;48.030;11.598;2024-02-23T13:42:40;0.93;;;0.80;;
16512;SDS011;8369;48.030;11.598;2024-02-23T13:45:06;0.60;;;0.60;;
16512;SDS011;8369;48.030;11.598;2024-02-23T13:47:34;1.00;;;0.57;;
16512;SDS011;8369;48.030;11.598;2024-02-23T13:50:03;0.60;;;0.60;;
16512;SDS011;8369;48.030;11.598;2024-02-23T13:52:39;0.70;;;0.70;;
16512;SDS011;8369;48.030;11.598;2024-02-23T13:55:05;0.73;;;0.73;;
16512;SDS011;8369;48.030;11.598;2024-02-23T13:57:31;0.67;;;0.67;;
16512;SDS011;8369;48.030;11.598;2024-02-23T13:59:57;1.13;;;0.70;;
16512;SDS011;8369;48.030;11.598;2024-02-23T14:02:27;1.50;;;1.10;;
16512;SDS011;8369;48.030;11.598;2024-02-23T14:04:59;0.80;;;0.80;;
16512;SDS011;8369;48.030;11.598;2024-02-23T14:07:31;4.80;;;0.90;;
16512;SDS011;8369;48.030;11.598;2024-02-23T14:10:00;3.37;;;0.90;;
16512;SDS011;8369;48.030;11.598;2024-02-23T14:12:27;0.77;;;0.60;;
16512;SDS011;8369;48.030;11.598;2024-02-23T14:14:55;1.43;;;0.67;;
16512;SDS011;8369;48.030;11.598;2024-02-23T14:17:21;2.40;;;0.70;;
16512;SDS011;8369;48.030;11.598;2024-02-23T14:19:47;0.90;;;0.70;;
16512;SDS011;8369;48.030;11.598;2024-02-23T14:22:13;0.73;;;0.73;;
16512;SDS011;8369;48.030;11.598;2024-02-23T14:24:39;0.67;;;0.67;;
16512;SDS011;8369;48.030;11.598;2024-02-23T14:27:08;0.70;;;0.70;;
16512;SDS011;8369;48.030;11.598;2024-02-23T14:29:34;0.60;;;0.60;;
16512;SDS011;8369;48.030;11.598;2024-02-23T14:32:00;0.63;;;0.60;;
16512;SDS011;8369;48.030;11.598;2024-02-23T14:34:26;0.80;;;0.80;;
16512;SDS011;8369;48.030;11.598;2024-02-23T14:36:54;1.57;;;0.90;;
16512;SDS011;8369;48.030;11.598;2024-02-23T14:39:20;2.07;;;0.70;;
16512;SDS011;8369;48.030;11.598;2024-02-23T14:41:46;1.23;;;0.77;;
16512;SDS011;8369;48.030;11.598;2024-02-23T14:44:12;0.97;;;0.93;;
16512;SDS011;8369;48.030;11.598;2024-02-23T14:46:38;1.17;;;0.77;;
16512;SDS011;8369;48.030;11.598;2024-02-23T14:49:04;0.70;;;0.70;;
16512;SDS011;8369;48.030;11.598;2024-02-23T14:51:32;0.63;;;0.63;;